Time;durP1;ratioP1;P1;durP2;ratioP2;P2;SDS_P1;SDS_P2;PMS_P1;PMS_P2;Temp;Humidity;BMP_temperature;BMP_pressure;BME280_temperature;BME280_humidity;BME280_pressure;Samples;Min_cycle;Max_cycle;Signal;HPM_P1;HPM_P2
2022/11/19 00:00:47;;;;;;;5.32;3.20;;;;;;;;;;5119515;27;20115;-67
2022/11/19 00:03:17;;;;;;;5.47;3.13;;;;;;;;;;5119337;27;20082;-67
2022/11/19 00:05:44;;;;;;;5.25;2.83;;;;;;;;;;5125784;27;20056;-67
2022/11/19 00:08:12;;;;;;;3.65;2.45;;;;;;;;;;5127840;27;20058;-67
2022/11/19 00:10:38;;;;;;;4.75;2.53;;;;;;;;;;5125478;27;20037;-67
2022/11/19 00:13:05;;;;;;;4.35;2.92;;;;;;;;;;5123158;27;20650;-67
2022/11/19 00:15:33;;;;;;;4.32;2.83;;;;;;;;;;5127172;27;20043;-66
2022/11/19 00:17:59;;;;;;;4.38;2.53;;;;;;;;;;5115862;27;20122;-66
2022/11/19 00:20:25;;;;;;;5.43;2.47;;;;;;;;;;5125120;27;20042;-67
2022/11/19 00:22:52;;;;;;;3.13;2.58;;;;;;;;;;5123249;27;20111;-67
2022/11/19 00:25:19;;;;;;;3.83;2.30;;;;;;;;;;5120682;27;20031;-66
2022/11/19 00:27:45;;;;;;;4.45;3.22;;;;;;;;;;5114443;27;20089;-67
2022/11/19 00:30:11;;;;;;;6.00;2.97;;;;;;;;;;5128067;27;20037;-66
2022/11/19 00:32:37;;;;;;;3.38;2.47;;;;;;;;;;5119421;27;20039;-67
2022/11/19 00:35:04;;;;;;;4.03;2.90;;;;;;;;;;5123569;27;20035;-67
2022/11/19 00:37:30;;;;;;;5.53;3.35;;;;;;;;;;5125452;27;20036;-67
2022/11/19 00:39:56;;;;;;;5.82;2.75;;;;;;;;;;5110018;28;20071;-67
2022/11/19 00:42:22;;;;;;;4.28;2.72;;;;;;;;;;5126025;27;20667;-67
2022/11/19 00:44:48;;;;;;;4.30;2.88;;;;;;;;;;5126057;27;20138;-66
2022/11/19 00:47:15;;;;;;;5.28;2.85;;;;;;;;;;5121692;27;20399;-67
2022/11/19 00:49:41;;;;;;;4.93;3.22;;;;;;;;;;5122567;27;20050;-66
2022/11/19 00:52:07;;;;;;;5.25;2.92;;;;;;;;;;5104657;27;20035;-66
2022/11/19 00:54:33;;;;;;;2.97;2.05;;;;;;;;;;5125846;27;20337;-66
2022/11/19 00:56:59;;;;;;;4.10;2.78;;;;;;;;;;5126804;27;20101;-66
2022/11/19 00:59:25;;;;;;;4.50;2.45;;;;;;;;;;5120587;28;20096;-66
2022/11/19 01:01:52;;;;;;;4.38;2.80;;;;;;;;;;5117523;28;20075;-67
2022/11/19 01:04:18;;;;;;;4.53;3.30;;;;;;;;;;5116035;28;20389;-67
2022/11/19 01:06:44;;;;;;;5.40;3.53;;;;;;;;;;5116668;28;20048;-65
2022/11/19 01:09:10;;;;;;;4.90;3.30;;;;;;;;;;5121890;28;20126;-67
2022/11/19 01:11:37;;;;;;;5.88;3.10;;;;;;;;;;5126472;28;20088;-67
2022/11/19 01:14:04;;;;;;;6.05;3.10;;;;;;;;;;5116269;28;20046;-66
2022/11/19 01:16:32;;;;;;;4.68;3.38;;;;;;;;;;5121973;28;20100;-67
2022/11/19 01:18:58;;;;;;;6.85;2.92;;;;;;;;;;5122461;28;20038;-67
2022/11/19 01:21:27;;;;;;;6.55;2.95;;;;;;;;;;5123441;28;20501;-67
2022/11/19 01:23:53;;;;;;;3.67;2.72;;;;;;;;;;5119416;28;20057;-67
2022/11/19 01:26:19;;;;;;;5.13;2.78;;;;;;;;;;5124650;28;20035;-67
2022/11/19 01:28:46;;;;;;;5.18;2.72;;;;;;;;;;5103924;28;20455;-67
2022/11/19 01:31:14;;;;;;;4.50;3.25;;;;;;;;;;5118762;28;20039;-66
2022/11/19 01:33:40;;;;;;;6.55;3.05;;;;;;;;;;5120041;28;20405;-66
2022/11/19 01:36:10;;;;;;;6.00;2.78;;;;;;;;;;5123783;28;20047;-67
2022/11/19 01:38:36;;;;;;;7.18;3.97;;;;;;;;;;5091355;28;20066;-67
2022/11/19 01:41:03;;;;;;;5.80;3.15;;;;;;;;;;5114460;28;20038;-67
2022/11/19 01:43:45;;;;;;;5.57;4.10;;;;;;;;;;5118169;28;20027;-67
2022/11/19 01:46:13;;;;;;;5.03;3.03;;;;;;;;;;5117241;27;20043;-67
2022/11/19 01:48:41;;;;;;;5.25;3.45;;;;;;;;;;5111023;27;20047;-66
2022/11/19 01:51:13;;;;;;;5.43;3.70;;;;;;;;;;5092994;27;20457;-66
2022/11/19 01:53:39;;;;;;;4.80;3.10;;;;;;;;;;5107783;27;20134;-66
2022/11/19 01:56:07;;;;;;;5.40;3.75;;;;;;;;;;5126635;27;20039;-67
2022/11/19 01:58:35;;;;;;;5.80;3.88;;;;;;;;;;5101500;27;20043;-67
2022/11/19 02:01:02;;;;;;;5.45;3.38;;;;;;;;;;5086483;27;20133;-67
2022/11/19 02:03:30;;;;;;;6.57;4.03;;;;;;;;;;5106724;27;20032;-67
2022/11/19 02:05:56;;;;;;;5.80;3.42;;;;;;;;;;5105046;28;20035;-67
2022/11/19 02:08:52;;;;;;;7.72;3.72;;;;;;;;;;5117451;27;20055;-67
2022/11/19 02:11:21;;;;;;;5.25;3.45;;;;;;;;;;5105994;27;20627;-67
2022/11/19 02:14:07;;;;;;;5.53;3.88;;;;;;;;;;5124025;27;20046;-67
2022/11/19 02:16:45;;;;;;;5.53;3.45;;;;;;;;;;5126930;27;20042;-67
2022/11/19 02:19:16;;;;;;;6.18;3.42;;;;;;;;;;5123588;27;20469;-68
2022/11/19 02:21:49;;;;;;;4.68;2.97;;;;;;;;;;5119281;27;20067;-66
2022/11/19 02:24:21;;;;;;;9.40;3.97;;;;;;;;;;5126940;27;20047;-67
2022/11/19 02:27:06;;;;;;;6.53;3.38;;;;;;;;;;5125686;27;20565;-67
2022/11/19 02:29:47;;;;;;;5.47;3.50;;;;;;;;;;5129214;27;20047;-67
2022/11/19 02:32:19;;;;;;;7.65;3.60;;;;;;;;;;5126246;27;20121;-67
2022/11/19 02:34:54;;;;;;;6.45;3.47;;;;;;;;;;5120805;27;20042;-67
2022/11/19 02:37:20;;;;;;;5.32;3.55;;;;;;;;;;5122005;27;20039;-67
2022/11/19 02:39:46;;;;;;;5.88;3.83;;;;;;;;;;5127601;27;20042;-67
2022/11/19 02:42:12;;;;;;;5.85;3.85;;;;;;;;;;5107331;27;20081;-67
2022/11/19 02:44:57;;;;;;;7.20;4.18;;;;;;;;;;5109233;27;20031;-67
2022/11/19 02:47:44;;;;;;;5.40;3.55;;;;;;;;;;5128095;27;20407;-67
2022/11/19 02:50:21;;;;;;;5.45;4.07;;;;;;;;;;5126570;27;20078;-67
2022/11/19 02:52:47;;;;;;;6.43;4.35;;;;;;;;;;5126796;27;20035;-67
2022/11/19 02:55:15;;;;;;;7.03;4.22;;;;;;;;;;5107506;28;20040;-67
2022/11/19 02:57:46;;;;;;;7.55;4.85;;;;;;;;;;5124398;27;20051;-67
2022/11/19 03:06:06;;;;;;;5.00;3.42;;;;;;;;;;5121096;27;20039;-66
2022/11/19 03:08:33;;;;;;;6.53;3.80;;;;;;;;;;5121174;27;20052;-66
2022/11/19 03:11:05;;;;;;;5.90;3.72;;;;;;;;;;5119867;27;20059;-66
2022/11/19 03:16:40;;;;;;;5.07;3.47;;;;;;;;;;5125257;27;20039;-66
2022/11/19 03:19:27;;;;;;;9.82;3.63;;;;;;;;;;5124033;27;20449;-66
2022/11/19 03:21:58;;;;;;;5.35;3.22;;;;;;;;;;5081282;27;20047;-66
2022/11/19 03:24:30;;;;;;;5.60;3.65;;;;;;;;;;5119462;27;20092;-66
2022/11/19 03:27:02;;;;;;;7.82;4.68;;;;;;;;;;5107103;27;20548;-65
2022/11/19 03:29:29;;;;;;;6.05;3.85;;;;;;;;;;5120708;27;20087;-66
2022/11/19 03:32:01;;;;;;;6.53;3.78;;;;;;;;;;5127403;27;20093;-66
2022/11/19 03:34:29;;;;;;;5.78;3.83;;;;;;;;;;5118326;27;20143;-66
2022/11/19 03:36:57;;;;;;;6.07;3.65;;;;;;;;;;5126989;27;20552;-66
2022/11/19 03:39:24;;;;;;;7.82;4.55;;;;;;;;;;5122844;27;20035;-66
2022/11/19 03:41:52;;;;;;;6.18;3.50;;;;;;;;;;5120794;27;20031;-66
2022/11/19 03:44:21;;;;;;;8.43;4.30;;;;;;;;;;5122329;27;20035;-67
2022/11/19 03:46:50;;;;;;;8.18;4.07;;;;;;;;;;5121380;27;20114;-66
2022/11/19 03:49:18;;;;;;;6.13;3.67;;;;;;;;;;5124657;27;20401;-67
2022/11/19 03:51:48;;;;;;;8.07;4.13;;;;;;;;;;5127898;27;20335;-67
2022/11/19 03:54:14;;;;;;;5.93;4.38;;;;;;;;;;5109756;27;20054;-67
2022/11/19 03:56:41;;;;;;;6.20;4.07;;;;;;;;;;5117333;27;20042;-67
2022/11/19 03:59:09;;;;;;;5.85;3.42;;;;;;;;;;5108869;27;20488;-66
2022/11/19 04:01:35;;;;;;;7.53;4.00;;;;;;;;;;5126802;27;20039;-66
2022/11/19 04:06:46;;;;;;;6.13;3.88;;;;;;;;;;5122392;27;20043;-67
2022/11/19 04:09:12;;;;;;;6.32;4.10;;;;;;;;;;5109958;27;20076;-66
2022/11/19 04:11:39;;;;;;;7.05;4.10;;;;;;;;;;5122372;27;20079;-67
2022/11/19 04:14:05;;;;;;;8.32;4.57;;;;;;;;;;5116286;27;20043;-67
2022/11/19 04:16:31;;;;;;;8.38;4.45;;;;;;;;;;5109047;27;20043;-67
2022/11/19 04:18:57;;;;;;;8.05;4.30;;;;;;;;;;5124258;27;20056;-67
2022/11/19 04:21:23;;;;;;;5.90;4.53;;;;;;;;;;5128396;27;20054;-67
2022/11/19 04:23:49;;;;;;;7.47;4.55;;;;;;;;;;5119224;27;20176;-67
2022/11/19 04:26:15;;;;;;;6.32;3.50;;;;;;;;;;5127151;27;20035;-67
2022/11/19 04:28:41;;;;;;;5.85;4.03;;;;;;;;;;5121736;27;20499;-67
2022/11/19 04:31:07;;;;;;;6.88;4.30;;;;;;;;;;5111557;27;20051;-67
2022/11/19 04:33:34;;;;;;;7.43;3.75;;;;;;;;;;5122521;27;20057;-67
2022/11/19 04:36:00;;;;;;;6.20;4.07;;;;;;;;;;5107170;28;20039;-67
2022/11/19 04:38:26;;;;;;;6.70;4.28;;;;;;;;;;5121918;27;20119;-67
2022/11/19 04:40:52;;;;;;;6.50;4.03;;;;;;;;;;5119281;27;20038;-67
2022/11/19 04:43:18;;;;;;;7.38;4.13;;;;;;;;;;5121129;27;20037;-67
2022/11/19 04:45:44;;;;;;;6.97;4.00;;;;;;;;;;5124872;27;20076;-67
2022/11/19 04:48:10;;;;;;;6.47;3.67;;;;;;;;;;5104351;27;20042;-67
2022/11/19 04:50:36;;;;;;;5.65;3.83;;;;;;;;;;5118922;27;20419;-67
2022/11/19 04:53:02;;;;;;;6.25;4.65;;;;;;;;;;5122227;27;20043;-67
2022/11/19 04:55:28;;;;;;;6.32;4.05;;;;;;;;;;5123690;27;20721;-67
2022/11/19 04:57:55;;;;;;;7.88;4.68;;;;;;;;;;5126480;27;20050;-66
2022/11/19 05:00:21;;;;;;;5.70;3.80;;;;;;;;;;5120568;28;20036;-67
2022/11/19 05:02:47;;;;;;;5.55;3.88;;;;;;;;;;5117692;28;20432;-66
2022/11/19 05:05:13;;;;;;;9.43;4.82;;;;;;;;;;5115079;28;20071;-67
2022/11/19 05:07:39;;;;;;;7.15;4.38;;;;;;;;;;5119730;28;20047;-67
2022/11/19 05:10:05;;;;;;;10.88;4.68;;;;;;;;;;5118609;28;20105;-67
2022/11/19 05:12:31;;;;;;;5.97;4.18;;;;;;;;;;5089242;28;20043;-67
2022/11/19 05:14:58;;;;;;;7.38;4.70;;;;;;;;;;5122138;28;20378;-66
2022/11/19 05:17:24;;;;;;;6.70;4.03;;;;;;;;;;5092692;28;20039;-67
2022/11/19 05:19:50;;;;;;;6.88;4.53;;;;;;;;;;5112862;28;20608;-67
2022/11/19 05:22:16;;;;;;;4.80;3.60;;;;;;;;;;5125387;27;20035;-66
2022/11/19 05:24:42;;;;;;;8.55;5.15;;;;;;;;;;5116396;27;20535;-66
2022/11/19 05:27:08;;;;;;;7.70;4.32;;;;;;;;;;5118236;27;20484;-66
2022/11/19 05:29:34;;;;;;;7.50;4.72;;;;;;;;;;5122219;27;20077;-67
2022/11/19 05:32:00;;;;;;;8.93;4.65;;;;;;;;;;5122496;27;20572;-66
2022/11/19 05:34:26;;;;;;;6.88;4.30;;;;;;;;;;5124985;27;20118;-67
2022/11/19 05:36:52;;;;;;;7.40;5.68;;;;;;;;;;5108759;27;20399;-67
2022/11/19 05:39:18;;;;;;;7.00;5.00;;;;;;;;;;5109143;27;20039;-67
2022/11/19 05:41:45;;;;;;;6.78;4.43;;;;;;;;;;5129238;27;20031;-67
2022/11/19 05:44:11;;;;;;;7.18;4.82;;;;;;;;;;5123185;27;20122;-66
2022/11/19 05:46:37;;;;;;;8.07;4.43;;;;;;;;;;5127239;27;20130;-66
2022/11/19 05:49:03;;;;;;;9.50;5.60;;;;;;;;;;5120013;27;20043;-67
2022/11/19 05:51:29;;;;;;;5.95;4.75;;;;;;;;;;5122601;27;20046;-66
2022/11/19 05:53:55;;;;;;;7.40;4.57;;;;;;;;;;5106520;28;20067;-67
2022/11/19 05:56:21;;;;;;;8.05;4.75;;;;;;;;;;5128566;27;20043;-66
2022/11/19 05:58:47;;;;;;;8.18;4.53;;;;;;;;;;5120621;27;20035;-66
2022/11/19 06:01:14;;;;;;;8.20;4.88;;;;;;;;;;5126813;27;20042;-67
2022/11/19 06:03:40;;;;;;;6.88;4.78;;;;;;;;;;5126465;27;20032;-67
2022/11/19 06:06:07;;;;;;;6.82;4.38;;;;;;;;;;5111432;27;20045;-66
2022/11/19 06:08:33;;;;;;;5.88;4.30;;;;;;;;;;5105401;27;20508;-67
2022/11/19 06:11:03;;;;;;;8.23;4.25;;;;;;;;;;5126517;27;20050;-67
2022/11/19 06:13:29;;;;;;;7.68;5.65;;;;;;;;;;5132015;27;20053;-66
2022/11/19 06:15:55;;;;;;;6.10;4.00;;;;;;;;;;5108326;27;20122;-67
2022/11/19 06:18:21;;;;;;;5.57;3.72;;;;;;;;;;5126700;27;20167;-67
2022/11/19 06:20:47;;;;;;;6.13;4.60;;;;;;;;;;5123540;27;20503;-66
2022/11/19 06:23:13;;;;;;;7.88;4.78;;;;;;;;;;5121956;27;20051;-66
2022/11/19 06:25:39;;;;;;;9.45;5.20;;;;;;;;;;5124805;27;20420;-67
2022/11/19 06:28:06;;;;;;;6.90;4.35;;;;;;;;;;5128119;27;20688;-67
2022/11/19 06:30:32;;;;;;;6.45;4.00;;;;;;;;;;5107896;27;20250;-67
2022/11/19 06:32:58;;;;;;;7.85;5.35;;;;;;;;;;5123120;27;20031;-67
2022/11/19 06:35:24;;;;;;;5.03;4.15;;;;;;;;;;5120591;27;20107;-66
2022/11/19 06:37:50;;;;;;;6.68;4.43;;;;;;;;;;5120557;27;20042;-67
2022/11/19 06:40:16;;;;;;;7.05;4.28;;;;;;;;;;5120424;27;20389;-67
2022/11/19 06:42:42;;;;;;;6.72;4.32;;;;;;;;;;5107341;28;20105;-67
2022/11/19 06:45:11;;;;;;;8.68;5.07;;;;;;;;;;5103988;27;20062;-67
2022/11/19 06:47:38;;;;;;;6.38;4.97;;;;;;;;;;5120470;27;20153;-67
2022/11/19 06:50:05;;;;;;;7.45;4.57;;;;;;;;;;5120291;27;20043;-67
2022/11/19 06:52:31;;;;;;;5.60;3.75;;;;;;;;;;5104569;28;20047;-67
2022/11/19 06:54:57;;;;;;;7.78;5.03;;;;;;;;;;5099089;27;20066;-66
2022/11/19 06:57:23;;;;;;;8.15;4.78;;;;;;;;;;5125903;27;20023;-67
2022/11/19 06:59:49;;;;;;;7.35;4.57;;;;;;;;;;5123209;27;20032;-67
2022/11/19 07:02:16;;;;;;;6.93;4.80;;;;;;;;;;5121578;27;20447;-66
2022/11/19 07:04:42;;;;;;;6.85;4.65;;;;;;;;;;5118658;27;20046;-67
2022/11/19 07:07:08;;;;;;;7.93;4.50;;;;;;;;;;5124012;27;20035;-66
2022/11/19 07:09:34;;;;;;;7.88;5.05;;;;;;;;;;5105176;27;20565;-69
2022/11/19 07:12:01;;;;;;;7.68;4.85;;;;;;;;;;5117985;27;20483;-69
2022/11/19 07:14:27;;;;;;;7.95;5.03;;;;;;;;;;5121555;27;20404;-67
2022/11/19 07:16:53;;;;;;;8.32;4.78;;;;;;;;;;5107554;27;20490;-67
2022/11/19 07:19:19;;;;;;;9.18;5.28;;;;;;;;;;5116246;27;20324;-67
2022/11/19 07:21:45;;;;;;;8.50;4.32;;;;;;;;;;5121022;27;20031;-66
2022/11/19 07:24:11;;;;;;;9.13;5.57;;;;;;;;;;5124164;27;20126;-67
2022/11/19 07:26:38;;;;;;;6.35;4.20;;;;;;;;;;5119817;27;20089;-66
2022/11/19 07:29:05;;;;;;;8.50;4.85;;;;;;;;;;5097854;27;20465;-66
2022/11/19 07:31:32;;;;;;;7.38;4.57;;;;;;;;;;5121665;27;20150;-67
2022/11/19 07:33:58;;;;;;;11.45;4.68;;;;;;;;;;5118325;27;20074;-67
2022/11/19 07:36:24;;;;;;;7.60;5.03;;;;;;;;;;5116186;27;20046;-67
2022/11/19 07:38:51;;;;;;;7.82;5.28;;;;;;;;;;5115145;27;20039;-67
2022/11/19 07:44:02;;;;;;;8.10;4.70;;;;;;;;;;5116074;27;20043;-67
2022/11/19 07:46:29;;;;;;;7.22;4.20;;;;;;;;;;5118106;27;20047;-67
2022/11/19 07:48:56;;;;;;;7.25;3.97;;;;;;;;;;5120416;27;20044;-67
2022/11/19 07:51:22;;;;;;;9.30;4.82;;;;;;;;;;5087543;27;20457;-66
2022/11/19 07:53:49;;;;;;;8.65;4.85;;;;;;;;;;5117373;27;20050;-67
2022/11/19 07:56:15;;;;;;;8.23;5.22;;;;;;;;;;5104387;27;20316;-66
2022/11/19 07:58:42;;;;;;;8.15;4.60;;;;;;;;;;5117731;27;20039;-67
2022/11/19 08:01:11;;;;;;;9.57;5.18;;;;;;;;;;5104909;27;20455;-67
2022/11/19 08:03:37;;;;;;;8.23;5.28;;;;;;;;;;5102701;27;20057;-67
2022/11/19 08:06:04;;;;;;;8.43;5.50;;;;;;;;;;5124573;27;20031;-67
2022/11/19 08:08:31;;;;;;;7.47;4.90;;;;;;;;;;5120004;27;20070;-67
2022/11/19 08:10:57;;;;;;;7.60;4.57;;;;;;;;;;5121021;27;20193;-67
2022/11/19 08:13:23;;;;;;;8.82;5.00;;;;;;;;;;5088243;27;20047;-67
2022/11/19 08:15:49;;;;;;;7.85;4.47;;;;;;;;;;5112524;27;20532;-67
2022/11/19 08:18:16;;;;;;;7.72;4.53;;;;;;;;;;5112631;27;20134;-67
2022/11/19 08:20:43;;;;;;;11.55;4.60;;;;;;;;;;5112457;27;20069;-67
2022/11/19 08:23:09;;;;;;;6.55;5.40;;;;;;;;;;5111721;27;20027;-67
2022/11/19 08:25:36;;;;;;;7.07;4.80;;;;;;;;;;5120140;27;20035;-67
2022/11/19 08:28:03;;;;;;;7.00;4.45;;;;;;;;;;5114942;27;20539;-67
2022/11/19 08:30:29;;;;;;;7.35;4.90;;;;;;;;;;5120703;27;20034;-67
2022/11/19 08:32:55;;;;;;;5.93;4.22;;;;;;;;;;5116498;27;20050;-67
2022/11/19 08:35:22;;;;;;;9.88;6.00;;;;;;;;;;5105081;27;20035;-68
2022/11/19 08:37:48;;;;;;;7.03;5.10;;;;;;;;;;5121957;27;20039;-68
2022/11/19 08:40:14;;;;;;;6.80;4.45;;;;;;;;;;5116059;27;20115;-67
2022/11/19 08:42:58;;;;;;;12.98;5.38;;;;;;;;;;5119138;27;20134;-67
2022/11/19 08:45:25;;;;;;;8.38;5.40;;;;;;;;;;5116021;27;20087;-67
2022/11/19 08:47:52;;;;;;;7.88;4.55;;;;;;;;;;5119954;27;20488;-68
2022/11/19 08:50:19;;;;;;;8.07;4.85;;;;;;;;;;5096334;28;20039;-67
2022/11/19 08:52:45;;;;;;;8.18;4.78;;;;;;;;;;5113793;27;20609;-67
2022/11/19 08:55:11;;;;;;;10.60;5.53;;;;;;;;;;5103076;28;20042;-67
2022/11/19 08:57:38;;;;;;;9.13;5.63;;;;;;;;;;5123440;27;20040;-67
2022/11/19 09:00:04;;;;;;;7.00;4.65;;;;;;;;;;5117725;27;20039;-68
2022/11/19 09:02:30;;;;;;;7.05;4.40;;;;;;;;;;5111997;28;20035;-68
2022/11/19 09:04:56;;;;;;;7.57;4.25;;;;;;;;;;5093557;28;20503;-68
2022/11/19 09:07:22;;;;;;;5.15;3.92;;;;;;;;;;5123459;28;20054;-68
2022/11/19 09:09:48;;;;;;;7.68;4.97;;;;;;;;;;5126763;28;20496;-68
2022/11/19 09:12:16;;;;;;;7.00;4.78;;;;;;;;;;5112859;28;20718;-68
2022/11/19 09:14:42;;;;;;;9.70;6.30;;;;;;;;;;5120054;28;20110;-68
2022/11/19 09:17:08;;;;;;;8.15;5.40;;;;;;;;;;5118258;28;20042;-68
2022/11/19 09:19:34;;;;;;;6.57;4.70;;;;;;;;;;5107072;28;20133;-68
2022/11/19 09:22:00;;;;;;;8.38;5.57;;;;;;;;;;5127912;28;20078;-68
2022/11/19 09:24:26;;;;;;;7.40;4.88;;;;;;;;;;5122261;28;20496;-68
2022/11/19 09:26:52;;;;;;;12.57;7.18;;;;;;;;;;5120285;28;20045;-68
2022/11/19 09:29:19;;;;;;;9.30;5.38;;;;;;;;;;5102799;28;20400;-67
2022/11/19 09:31:45;;;;;;;8.85;6.15;;;;;;;;;;5122333;28;20070;-68
2022/11/19 09:34:11;;;;;;;9.05;5.63;;;;;;;;;;5114801;28;20157;-68
2022/11/19 09:36:37;;;;;;;7.80;5.28;;;;;;;;;;5125748;28;20023;-68
2022/11/19 09:39:03;;;;;;;9.73;5.60;;;;;;;;;;5099738;28;20049;-61
2022/11/19 09:41:48;;;;;;;6.78;4.90;;;;;;;;;;5088481;28;20056;-64
2022/11/19 09:44:14;;;;;;;6.53;5.30;;;;;;;;;;5117236;28;20117;-62
2022/11/19 09:46:49;;;;;;;7.88;5.32;;;;;;;;;;5099065;28;20158;-62
2022/11/19 09:49:21;;;;;;;8.38;5.13;;;;;;;;;;5101111;28;20073;-64
2022/11/19 09:51:52;;;;;;;13.38;5.50;;;;;;;;;;5121261;28;20031;-61
2022/11/19 09:54:20;;;;;;;8.30;5.72;;;;;;;;;;5122490;28;20031;-61
2022/11/19 09:56:47;;;;;;;9.00;4.38;;;;;;;;;;5126153;28;20117;-61
2022/11/19 09:59:19;;;;;;;7.78;4.63;;;;;;;;;;5106048;28;20105;-61
2022/11/19 10:01:45;;;;;;;16.95;6.15;;;;;;;;;;5124553;28;20126;-61
2022/11/19 10:04:12;;;;;;;129.15;17.00;;;;;;;;;;5103977;28;20122;-61
2022/11/19 10:06:56;;;;;;;10.15;6.03;;;;;;;;;;5123497;27;20023;-62
2022/11/19 10:09:22;;;;;;;6.20;4.60;;;;;;;;;;5121294;27;20584;-62
2022/11/19 10:12:12;;;;;;;8.90;5.20;;;;;;;;;;5131241;27;20088;-62
2022/11/19 10:14:47;;;;;;;7.40;4.60;;;;;;;;;;5116406;27;20544;-62
2022/11/19 10:17:14;;;;;;;6.88;5.38;;;;;;;;;;5124337;27;20050;-62
2022/11/19 10:19:46;;;;;;;9.55;5.47;;;;;;;;;;5107109;28;20039;-62
2022/11/19 10:22:15;;;;;;;8.23;4.95;;;;;;;;;;5110686;27;20043;-62
2022/11/19 10:24:43;;;;;;;8.10;5.10;;;;;;;;;;5120784;27;20079;-62
2022/11/19 10:27:15;;;;;;;7.00;4.93;;;;;;;;;;5118764;27;20036;-62
2022/11/19 10:29:41;;;;;;;7.55;4.88;;;;;;;;;;5120252;27;20046;-61
2022/11/19 10:32:20;;;;;;;8.77;4.82;;;;;;;;;;5122969;27;20036;-62
2022/11/19 10:34:46;;;;;;;7.82;5.45;;;;;;;;;;5095491;27;20109;-61
2022/11/19 10:37:14;;;;;;;8.63;4.80;;;;;;;;;;5108816;27;20031;-61
2022/11/19 10:39:40;;;;;;;8.32;5.03;;;;;;;;;;5111174;27;20050;-62
2022/11/19 10:42:27;;;;;;;8.90;5.28;;;;;;;;;;5129688;27;20046;-61
2022/11/19 10:44:59;;;;;;;8.73;5.00;;;;;;;;;;5101262;27;20035;-61
2022/11/19 10:47:29;;;;;;;10.93;5.25;;;;;;;;;;5119937;27;20084;-61
2022/11/19 10:49:55;;;;;;;6.90;4.15;;;;;;;;;;5119697;27;20031;-61
2022/11/19 10:52:34;;;;;;;5.88;3.35;;;;;;;;;;5101095;27;20039;-61
2022/11/19 10:55:03;;;;;;;6.47;4.18;;;;;;;;;;5130548;27;20118;-62
2022/11/19 10:57:31;;;;;;;7.82;4.32;;;;;;;;;;5128166;27;20477;-61
2022/11/19 10:59:57;;;;;;;6.13;4.65;;;;;;;;;;5126707;27;20462;-62
2022/11/19 11:02:30;;;;;;;6.78;4.25;;;;;;;;;;5117839;27;20032;-62
2022/11/19 11:05:16;;;;;;;6.78;4.15;;;;;;;;;;5127460;27;20034;-62
2022/11/19 11:07:45;;;;;;;6.15;3.83;;;;;;;;;;5110245;27;20156;-62
2022/11/19 11:10:32;;;;;;;8.23;4.38;;;;;;;;;;5126829;27;20572;-62
2022/11/19 11:15:51;;;;;;;4.75;3.47;;;;;;;;;;5111085;27;20054;-62
2022/11/19 11:18:19;;;;;;;8.05;5.30;;;;;;;;;;5128642;27;20115;-62
2022/11/19 11:20:49;;;;;;;5.78;3.88;;;;;;;;;;5125983;27;20031;-62
2022/11/19 11:23:15;;;;;;;5.07;3.70;;;;;;;;;;5123196;27;20513;-62
2022/11/19 11:25:51;;;;;;;4.80;3.35;;;;;;;;;;5126282;27;20504;-62
2022/11/19 11:28:18;;;;;;;5.70;3.72;;;;;;;;;;5117358;27;20039;-63
2022/11/19 11:30:53;;;;;;;7.10;3.33;;;;;;;;;;5130073;27;20042;-62
2022/11/19 11:33:35;;;;;;;6.75;4.03;;;;;;;;;;5108513;27;20078;-62
2022/11/19 11:36:12;;;;;;;6.38;3.53;;;;;;;;;;5125522;27;20049;-62
2022/11/19 11:38:43;;;;;;;6.22;3.72;;;;;;;;;;5118023;27;20045;-62
2022/11/19 11:41:10;;;;;;;7.22;3.50;;;;;;;;;;5123888;27;20422;-62
2022/11/19 11:43:38;;;;;;;6.07;3.83;;;;;;;;;;5128277;27;20023;-62
2022/11/19 11:46:06;;;;;;;6.60;4.10;;;;;;;;;;5123331;27;20046;-62
2022/11/19 11:48:47;;;;;;;5.15;3.42;;;;;;;;;;5123921;27;20035;-62
2022/11/19 11:51:33;;;;;;;6.88;4.07;;;;;;;;;;5086937;27;20054;-62
2022/11/19 11:54:19;;;;;;;6.40;4.45;;;;;;;;;;5109380;27;20074;-63
2022/11/19 11:56:45;;;;;;;6.63;3.70;;;;;;;;;;5116729;27;20031;-68
2022/11/19 11:59:20;;;;;;;6.72;4.85;;;;;;;;;;5126020;27;20462;-67
2022/11/19 12:01:53;;;;;;;7.35;4.30;;;;;;;;;;5107201;27;20046;-65
2022/11/19 12:04:19;;;;;;;;;;;;;;;;;;5122854;27;20039;-64
2022/11/19 12:06:51;;;;;;;8.13;4.63;;;;;;;;;;5117627;27;20015;-65
2022/11/19 12:09:21;;;;;;;8.88;4.57;;;;;;;;;;5105600;27;20055;-65
2022/11/19 12:11:57;;;;;;;5.03;3.50;;;;;;;;;;5114246;27;20078;-65
2022/11/19 12:14:35;;;;;;;8.00;4.70;;;;;;;;;;5119858;27;20115;-66
2022/11/19 12:17:04;;;;;;;7.93;4.10;;;;;;;;;;5125197;27;20437;-65
2022/11/19 12:19:34;;;;;;;5.85;3.33;;;;;;;;;;5126546;27;20046;-65
2022/11/19 12:22:04;;;;;;;4.78;3.08;;;;;;;;;;5109645;27;20039;-65
2022/11/19 12:24:53;;;;;;;3.88;2.85;;;;;;;;;;5110256;27;20076;-66
2022/11/19 12:27:26;;;;;;;4.80;2.80;;;;;;;;;;5118005;27;20058;-66
2022/11/19 12:30:09;;;;;;;7.70;3.25;;;;;;;;;;5109521;27;20043;-66
2022/11/19 12:32:35;;;;;;;5.30;3.00;;;;;;;;;;5127306;27;20035;-66
2022/11/19 12:35:16;;;;;;;4.72;2.75;;;;;;;;;;5121506;27;20032;-66
2022/11/19 12:37:48;;;;;;;5.82;4.00;;;;;;;;;;5128551;27;20596;-66
2022/11/19 12:40:20;;;;;;;5.43;3.97;;;;;;;;;;5129852;27;20709;-66
2022/11/19 12:42:53;;;;;;;4.38;3.65;;;;;;;;;;5119179;27;20041;-66
2022/11/19 12:45:38;;;;;;;4.13;3.13;;;;;;;;;;5109186;27;20039;-66
2022/11/19 12:48:04;;;;;;;4.97;3.00;;;;;;;;;;5125320;27;20081;-66
2022/11/19 12:50:40;;;;;;;5.45;3.88;;;;;;;;;;5119753;27;20031;-66
2022/11/19 12:53:18;;;;;;;4.40;2.55;;;;;;;;;;5117382;28;20051;-66
2022/11/19 12:56:07;;;;;;;4.10;2.88;;;;;;;;;;5119423;27;20392;-66
2022/11/19 12:58:47;;;;;;;5.47;3.13;;;;;;;;;;5120981;27;20040;-66
2022/11/19 13:01:19;;;;;;;4.57;3.05;;;;;;;;;;5121492;27;20039;-66
2022/11/19 13:04:04;;;;;;;4.90;3.23;;;;;;;;;;5125979;28;20197;-66
2022/11/19 13:06:35;;;;;;;5.25;3.08;;;;;;;;;;5128111;28;20075;-66
2022/11/19 13:09:05;;;;;;;4.93;2.67;;;;;;;;;;5125193;28;20464;-71
2022/11/19 13:11:35;;;;;;;3.85;2.80;;;;;;;;;;5110121;28;20055;-66
2022/11/19 13:14:24;;;;;;;6.07;3.10;;;;;;;;;;5088265;28;20577;-68
2022/11/19 13:16:51;;;;;;;5.40;3.00;;;;;;;;;;5096141;28;20093;-68
2022/11/19 13:19:27;;;;;;;4.55;3.05;;;;;;;;;;5098009;28;20489;-68
2022/11/19 13:21:55;;;;;;;3.92;2.90;;;;;;;;;;5124773;28;20508;-68
2022/11/19 13:24:22;;;;;;;4.25;3.10;;;;;;;;;;5115618;28;20055;-71
2022/11/19 13:26:48;;;;;;;4.13;2.70;;;;;;;;;;5115578;28;20039;-69
2022/11/19 13:29:20;;;;;;;3.72;2.70;;;;;;;;;;5114741;28;20050;-70
2022/11/19 13:31:56;;;;;;;6.35;4.13;;;;;;;;;;5101100;28;20669;-69
2022/11/19 13:34:29;;;;;;;6.57;3.70;;;;;;;;;;5094167;28;20039;-69
2022/11/19 13:37:03;;;;;;;5.13;3.65;;;;;;;;;;5092505;28;20084;-69
2022/11/19 13:39:35;;;;;;;5.65;3.80;;;;;;;;;;5093911;28;20527;-69
2022/11/19 13:44:48;;;;;;;6.15;4.38;;;;;;;;;;5127427;27;20471;-69
2022/11/19 13:47:19;;;;;;;4.07;2.92;;;;;;;;;;5106798;28;20042;-69
2022/11/19 13:49:52;;;;;;;5.25;3.65;;;;;;;;;;5117243;27;20039;-69
2022/11/19 13:52:18;;;;;;;6.20;3.55;;;;;;;;;;5124895;27;20080;-68
2022/11/19 13:54:44;;;;;;;5.65;3.30;;;;;;;;;;5124956;27;20046;-69
2022/11/19 13:57:24;;;;;;;4.70;3.35;;;;;;;;;;5105301;28;20047;-68
2022/11/19 13:59:50;;;;;;;3.53;3.00;;;;;;;;;;5118811;27;20548;-68
2022/11/19 14:02:25;;;;;;;4.50;3.25;;;;;;;;;;5124960;27;20384;-69
2022/11/19 14:04:54;;;;;;;6.15;3.33;;;;;;;;;;5123637;27;20121;-69
2022/11/19 14:07:30;;;;;;;4.78;3.40;;;;;;;;;;5123866;27;20038;-69
2022/11/19 14:10:11;;;;;;;4.22;3.05;;;;;;;;;;5116949;27;20047;-69
2022/11/19 14:12:55;;;;;;;5.05;3.63;;;;;;;;;;5120563;27;20054;-69
2022/11/19 14:27:29;;;;;;;4.43;3.13;;;;;;;;;;5120999;27;20070;-68
2022/11/19 14:29:58;;;;;;;6.35;3.13;;;;;;;;;;5121283;27;20171;-69
2022/11/19 14:32:28;;;;;;;4.45;2.95;;;;;;;;;;5123020;27;20042;-68
2022/11/19 14:35:00;;;;;;;5.28;3.30;;;;;;;;;;5129245;27;20058;-68
2022/11/19 14:37:28;;;;;;;7.00;4.63;;;;;;;;;;5125436;27;20111;-69
2022/11/19 14:40:07;;;;;;;5.40;3.25;;;;;;;;;;5119322;27;20035;-69
2022/11/19 14:44:06;;;;;;;5.07;3.40;;;;;;;;;;5123211;27;20122;-69
2022/11/19 14:45:20;;;;;;;6.38;3.63;;;;;;;;;;5118763;27;20050;-69
2022/11/19 14:47:46;;;;;;;5.65;3.70;;;;;;;;;;5128022;27;20333;-69
2022/11/19 14:50:25;;;;;;;5.57;3.72;;;;;;;;;;5128658;27;20484;-69
2022/11/19 14:52:56;;;;;;;5.13;3.70;;;;;;;;;;5125924;27;20046;-69
2022/11/19 14:55:23;;;;;;;5.40;3.65;;;;;;;;;;5130097;27;20035;-69
2022/11/19 14:57:55;;;;;;;7.35;4.32;;;;;;;;;;5093884;27;20130;-69
2022/11/19 15:00:29;;;;;;;5.97;3.85;;;;;;;;;;5122038;27;20062;-69
2022/11/19 15:02:55;;;;;;;7.90;4.28;;;;;;;;;;5115060;27;20057;-69
2022/11/19 15:05:27;;;;;;;6.93;4.43;;;;;;;;;;5127668;27;20448;-69
2022/11/19 15:08:11;;;;;;;6.30;4.32;;;;;;;;;;5124674;27;20115;-69
2022/11/19 15:11:07;;;;;;;5.70;4.10;;;;;;;;;;5125809;27;20065;-69
2022/11/19 15:13:33;;;;;;;5.38;4.10;;;;;;;;;;5111178;27;20043;-69
2022/11/19 15:16:16;;;;;;;6.70;4.38;;;;;;;;;;5111950;27;20120;-68
2022/11/19 15:18:42;;;;;;;6.95;4.13;;;;;;;;;;5125975;27;20042;-69
2022/11/19 15:21:20;;;;;;;7.90;4.20;;;;;;;;;;5126051;27;20393;-69
2022/11/19 15:23:46;;;;;;;7.15;4.20;;;;;;;;;;5119090;27;20037;-68
2022/11/19 15:26:30;;;;;;;8.00;4.13;;;;;;;;;;5124910;27;20510;-68
2022/11/19 15:29:07;;;;;;;6.88;3.88;;;;;;;;;;5128035;27;20043;-68